sensor_id;sensor_type;location;lat;lon;timestamp;pressure;altitude;pressure_sealevel;temperature;humidity
51849;BME280;38952;51.090;-1.832;2022-10-24T00:00:43;98223.91;;;11.70;100.00
51849;BME280;38952;51.090;-1.832;2022-10-24T00:03:09;98226.03;;;11.64;100.00
51849;BME280;38952;51.090;-1.832;2022-10-24T00:05:35;98243.09;;;11.61;100.00
51849;BME280;38952;51.090;-1.832;2022-10-24T00:08:01;98242.81;;;11.54;100.00
51849;BME280;38952;51.090;-1.832;2022-10-24T00:10:27;98248.44;;;11.49;100.00
51849;BME280;38952;51.090;-1.832;2022-10-24T00:12:53;98257.28;;;11.46;100.00
51849;BME280;38952;51.090;-1.832;2022-10-24T00:15:19;98259.06;;;11.50;100.00
51849;BME280;38952;51.090;-1.832;2022-10-24T00:17:44;98259.88;;;11.51;100.00
51849;BME280;38952;51.090;-1.832;2022-10-24T00:20:11;98281.59;;;11.56;100.00
51849;BME280;38952;51.090;-1.832;2022-10-24T00:22:36;98279.50;;;11.53;100.00
51849;BME280;38952;51.090;-1.832;2022-10-24T00:25:02;98290.75;;;11.60;100.00
51849;BME280;38952;51.090;-1.832;2022-10-24T00:27:28;98301.22;;;11.67;100.00
51849;BME280;38952;51.090;-1.832;2022-10-24T00:29:53;98313.94;;;11.72;100.00
51849;BME280;38952;51.090;-1.832;2022-10-24T00:32:19;98318.28;;;11.73;100.00
51849;BME280;38952;51.090;-1.832;2022-10-24T00:34:45;98312.97;;;11.67;100.00
51849;BME280;38952;51.090;-1.832;2022-10-24T00:37:10;98339.53;;;11.76;100.00
51849;BME280;38952;51.090;-1.832;2022-10-24T00:39:35;98336.81;;;11.76;100.00
51849;BME280;38952;51.090;-1.832;2022-10-24T00:42:01;98343.88;;;11.68;100.00
51849;BME280;38952;51.090;-1.832;2022-10-24T00:44:30;98352.41;;;11.66;100.00
51849;BME280;38952;51.090;-1.832;2022-10-24T00:47:06;98351.94;;;11.64;100.00
51849;BME280;38952;51.090;-1.832;2022-10-24T00:49:46;98364.22;;;11.58;100.00
51849;BME280;38952;51.090;-1.832;2022-10-24T00:52:17;98371.59;;;11.49;100.00
51849;BME280;38952;51.090;-1.832;2022-10-24T00:54:45;98377.88;;;11.41;100.00
51849;BME280;38952;51.090;-1.832;2022-10-24T00:57:20;98378.84;;;11.27;100.00
51849;BME280;38952;51.090;-1.832;2022-10-24T00:59:50;98390.13;;;11.26;100.00
51849;BME280;38952;51.090;-1.832;2022-10-24T01:02:17;98403.78;;;11.34;100.00
51849;BME280;38952;51.090;-1.832;2022-10-24T01:04:42;98401.03;;;11.34;100.00
51849;BME280;38952;51.090;-1.832;2022-10-24T01:10:09;98419.75;;;11.50;100.00
51849;BME280;38952;51.090;-1.832;2022-10-24T01:22:32;98457.59;;;11.65;100.00
51849;BME280;38952;51.090;-1.832;2022-10-24T01:25:13;98474.69;;;11.62;100.00
51849;BME280;38952;51.090;-1.832;2022-10-24T01:28:02;98481.75;;;11.63;100.00
51849;BME280;38952;51.090;-1.832;2022-10-24T01:30:26;98496.56;;;11.62;100.00
51849;BME280;38952;51.090;-1.832;2022-10-24T01:33:30;98502.06;;;11.62;100.00
51849;BME280;38952;51.090;-1.832;2022-10-24T01:36:00;98497.19;;;11.59;100.00
51849;BME280;38952;51.090;-1.832;2022-10-24T01:38:31;98514.25;;;11.56;100.00
51849;BME280;38952;51.090;-1.832;2022-10-24T01:43:38;98523.28;;;11.48;100.00
51849;BME280;38952;51.090;-1.832;2022-10-24T01:46:18;98521.47;;;11.43;100.00
51849;BME280;38952;51.090;-1.832;2022-10-24T01:48:54;98526.63;;;11.36;100.00
51849;BME280;38952;51.090;-1.832;2022-10-24T01:51:24;98549.13;;;11.33;100.00
51849;BME280;38952;51.090;-1.832;2022-10-24T01:53:51;98541.41;;;11.26;100.00
51849;BME280;38952;51.090;-1.832;2022-10-24T01:56:18;98554.72;;;11.19;100.00
51849;BME280;38952;51.090;-1.832;2022-10-24T01:58:43;98559.84;;;11.12;100.00
51849;BME280;38952;51.090;-1.832;2022-10-24T02:01:15;98572.06;;;11.06;100.00
51849;BME280;38952;51.090;-1.832;2022-10-24T02:03:53;98559.59;;;10.91;100.00
51849;BME280;38952;51.090;-1.832;2022-10-24T02:06:29;98566.59;;;10.83;100.00
51849;BME280;38952;51.090;-1.832;2022-10-24T02:09:02;98566.25;;;10.76;100.00
51849;BME280;38952;51.090;-1.832;2022-10-24T02:11:30;98566.19;;;10.67;100.00
51849;BME280;38952;51.090;-1.832;2022-10-24T02:14:06;98572.59;;;10.62;100.00
51849;BME280;38952;51.090;-1.832;2022-10-24T02:16:33;98581.09;;;10.61;100.00
51849;BME280;38952;51.090;-1.832;2022-10-24T02:18:59;98576.75;;;10.60;100.00
51849;BME280;38952;51.090;-1.832;2022-10-24T02:24:13;98578.19;;;10.57;100.00
51849;BME280;38952;51.090;-1.832;2022-10-24T02:29:35;98586.75;;;10.42;100.00
51849;BME280;38952;51.090;-1.832;2022-10-24T02:32:06;98591.22;;;10.38;100.00
51849;BME280;38952;51.090;-1.832;2022-10-24T02:34:34;98599.72;;;10.36;100.00
51849;BME280;38952;51.090;-1.832;2022-10-24T02:37:03;98606.31;;;10.35;100.00
51849;BME280;38952;51.090;-1.832;2022-10-24T02:39:30;98621.38;;;10.33;100.00
51849;BME280;38952;51.090;-1.832;2022-10-24T02:41:56;98620.38;;;10.28;100.00
51849;BME280;38952;51.090;-1.832;2022-10-24T02:44:23;98617.66;;;10.28;100.00
51849;BME280;38952;51.090;-1.832;2022-10-24T02:46:51;98621.00;;;10.25;100.00
51849;BME280;38952;51.090;-1.832;2022-10-24T02:49:18;98631.94;;;10.25;100.00
51849;BME280;38952;51.090;-1.832;2022-10-24T02:51:45;98633.09;;;10.33;100.00
51849;BME280;38952;51.090;-1.832;2022-10-24T02:54:11;98644.88;;;10.34;100.00
51849;BME280;38952;51.090;-1.832;2022-10-24T02:56:40;98646.59;;;10.29;100.00
51849;BME280;38952;51.090;-1.832;2022-10-24T02:59:08;98642.22;;;10.28;100.00
51849;BME280;38952;51.090;-1.832;2022-10-24T03:01:33;98647.69;;;10.28;100.00
51849;BME280;38952;51.090;-1.832;2022-10-24T03:03:59;98660.44;;;10.33;100.00
51849;BME280;38952;51.090;-1.832;2022-10-24T03:06:26;98649.22;;;10.35;100.00
51849;BME280;38952;51.090;-1.832;2022-10-24T03:08:52;98655.78;;;10.47;100.00
51849;BME280;38952;51.090;-1.832;2022-10-24T03:11:17;98652.72;;;10.49;100.00
51849;BME280;38952;51.090;-1.832;2022-10-24T03:13:45;98644.53;;;10.49;100.00
51849;BME280;38952;51.090;-1.832;2022-10-24T03:16:15;98656.25;;;10.50;100.00
51849;BME280;38952;51.090;-1.832;2022-10-24T03:18:41;98653.84;;;10.48;100.00
51849;BME280;38952;51.090;-1.832;2022-10-24T03:21:07;98669.44;;;10.47;100.00
51849;BME280;38952;51.090;-1.832;2022-10-24T03:23:35;98655.78;;;10.34;100.00
51849;BME280;38952;51.090;-1.832;2022-10-24T03:26:10;98680.06;;;10.35;100.00
51849;BME280;38952;51.090;-1.832;2022-10-24T03:28:39;98683.13;;;10.34;100.00
51849;BME280;38952;51.090;-1.832;2022-10-24T03:31:04;98680.66;;;10.32;100.00
51849;BME280;38952;51.090;-1.832;2022-10-24T03:33:30;98680.47;;;10.28;100.00
51849;BME280;38952;51.090;-1.832;2022-10-24T03:35:56;98704.38;;;10.37;100.00
51849;BME280;38952;51.090;-1.832;2022-10-24T03:38:22;98702.75;;;10.36;100.00
51849;BME280;38952;51.090;-1.832;2022-10-24T03:40:48;98697.88;;;10.33;100.00
51849;BME280;38952;51.090;-1.832;2022-10-24T03:43:14;98701.53;;;10.28;100.00
51849;BME280;38952;51.090;-1.832;2022-10-24T03:45:40;98716.09;;;10.23;100.00
51849;BME280;38952;51.090;-1.832;2022-10-24T03:48:06;98723.19;;;10.24;100.00
51849;BME280;38952;51.090;-1.832;2022-10-24T03:50:32;98729.56;;;10.34;100.00
51849;BME280;38952;51.090;-1.832;2022-10-24T03:52:59;98724.50;;;10.41;100.00
51849;BME280;38952;51.090;-1.832;2022-10-24T03:55:25;98721.38;;;10.34;100.00
51849;BME280;38952;51.090;-1.832;2022-10-24T03:57:51;98727.84;;;10.38;100.00
51849;BME280;38952;51.090;-1.832;2022-10-24T04:00:17;98739.16;;;10.45;100.00
51849;BME280;38952;51.090;-1.832;2022-10-24T04:02:43;98740.34;;;10.53;100.00
51849;BME280;38952;51.090;-1.832;2022-10-24T04:05:09;98750.09;;;10.59;100.00
51849;BME280;38952;51.090;-1.832;2022-10-24T04:07:35;98761.72;;;10.64;100.00
51849;BME280;38952;51.090;-1.832;2022-10-24T04:10:00;98756.44;;;10.68;100.00
51849;BME280;38952;51.090;-1.832;2022-10-24T04:12:26;98758.84;;;10.70;100.00
51849;BME280;38952;51.090;-1.832;2022-10-24T04:15:01;98755.13;;;10.65;100.00
51849;BME280;38952;51.090;-1.832;2022-10-24T04:17:28;98756.97;;;10.56;100.00
51849;BME280;38952;51.090;-1.832;2022-10-24T04:19:53;98765.25;;;10.51;100.00
51849;BME280;38952;51.090;-1.832;2022-10-24T04:22:19;98763.38;;;10.38;100.00
51849;BME280;38952;51.090;-1.832;2022-10-24T04:24:44;98775.78;;;10.30;100.00
51849;BME280;38952;51.090;-1.832;2022-10-24T04:27:10;98779.84;;;10.19;100.00
51849;BME280;38952;51.090;-1.832;2022-10-24T04:29:35;98766.69;;;10.07;100.00
51849;BME280;38952;51.090;-1.832;2022-10-24T04:32:01;98783.28;;;10.10;100.00
51849;BME280;38952;51.090;-1.832;2022-10-24T04:34:26;98788.34;;;10.17;100.00
51849;BME280;38952;51.090;-1.832;2022-10-24T04:36:52;98790.56;;;10.15;100.00
51849;BME280;38952;51.090;-1.832;2022-10-24T04:39:18;98786.28;;;10.09;100.00
51849;BME280;38952;51.090;-1.832;2022-10-24T04:41:44;98792.97;;;10.03;100.00
51849;BME280;38952;51.090;-1.832;2022-10-24T04:44:10;98790.97;;;9.94;100.00
51849;BME280;38952;51.090;-1.832;2022-10-24T04:46:36;98797.31;;;9.90;100.00
51849;BME280;38952;51.090;-1.832;2022-10-24T04:49:01;98805.91;;;9.83;100.00
51849;BME280;38952;51.090;-1.832;2022-10-24T04:51:30;98807.63;;;9.79;100.00
51849;BME280;38952;51.090;-1.832;2022-10-24T04:53:55;98807.72;;;9.74;100.00
51849;BME280;38952;51.090;-1.832;2022-10-24T04:56:21;98810.53;;;9.69;100.00
51849;BME280;38952;51.090;-1.832;2022-10-24T04:58:47;98813.84;;;9.66;100.00
51849;BME280;38952;51.090;-1.832;2022-10-24T05:01:12;98814.97;;;9.65;100.00
51849;BME280;38952;51.090;-1.832;2022-10-24T05:03:37;98818.00;;;9.63;100.00
51849;BME280;38952;51.090;-1.832;2022-10-24T05:06:03;98819.38;;;9.60;100.00
51849;BME280;38952;51.090;-1.832;2022-10-24T05:08:29;98827.69;;;9.55;100.00
51849;BME280;38952;51.090;-1.832;2022-10-24T05:10:57;98824.81;;;9.47;100.00
51849;BME280;38952;51.090;-1.832;2022-10-24T05:13:22;98836.53;;;9.47;100.00
51849;BME280;38952;51.090;-1.832;2022-10-24T05:15:48;98837.72;;;9.41;100.00
51849;BME280;38952;51.090;-1.832;2022-10-24T05:18:13;98836.19;;;9.35;100.00
51849;BME280;38952;51.090;-1.832;2022-10-24T05:20:39;98853.66;;;9.34;100.00
51849;BME280;38952;51.090;-1.832;2022-10-24T05:23:04;98837.75;;;9.22;100.00
51849;BME280;38952;51.090;-1.832;2022-10-24T05:25:30;98845.38;;;9.20;100.00
51849;BME280;38952;51.090;-1.832;2022-10-24T05:27:55;98854.84;;;9.28;100.00
51849;BME280;38952;51.090;-1.832;2022-10-24T05:30:23;98854.31;;;9.25;100.00
51849;BME280;38952;51.090;-1.832;2022-10-24T05:32:48;98853.22;;;9.26;100.00
51849;BME280;38952;51.090;-1.832;2022-10-24T05:35:13;98852.84;;;9.33;100.00
51849;BME280;38952;51.090;-1.832;2022-10-24T05:37:39;98861.19;;;9.42;100.00
51849;BME280;38952;51.090;-1.832;2022-10-24T05:40:09;98869.72;;;9.54;100.00
51849;BME280;38952;51.090;-1.832;2022-10-24T05:42:35;98853.34;;;9.54;100.00
51849;BME280;38952;51.090;-1.832;2022-10-24T05:45:02;98863.88;;;9.61;100.00
51849;BME280;38952;51.090;-1.832;2022-10-24T05:47:27;98866.75;;;9.70;100.00
51849;BME280;38952;51.090;-1.832;2022-10-24T05:49:53;98872.03;;;9.80;100.00
51849;BME280;38952;51.090;-1.832;2022-10-24T05:52:18;98873.06;;;9.84;100.00
51849;BME280;38952;51.090;-1.832;2022-10-24T05:54:44;98876.78;;;9.88;100.00
51849;BME280;38952;51.090;-1.832;2022-10-24T05:57:09;98886.00;;;9.92;100.00
51849;BME280;38952;51.090;-1.832;2022-10-24T05:59:34;98890.25;;;9.99;100.00
51849;BME280;38952;51.090;-1.832;2022-10-24T06:02:00;98895.94;;;10.02;100.00
51849;BME280;38952;51.090;-1.832;2022-10-24T06:04:25;98900.50;;;10.07;100.00
51849;BME280;38952;51.090;-1.832;2022-10-24T06:06:51;98895.56;;;10.09;100.00
51849;BME280;38952;51.090;-1.832;2022-10-24T06:09:16;98897.78;;;10.07;100.00
51849;BME280;38952;51.090;-1.832;2022-10-24T06:11:42;98891.91;;;10.00;100.00
51849;BME280;38952;51.090;-1.832;2022-10-24T06:14:08;98894.94;;;9.98;100.00
51849;BME280;38952;51.090;-1.832;2022-10-24T06:16:34;98898.56;;;9.93;100.00
51849;BME280;38952;51.090;-1.832;2022-10-24T06:19:02;98901.88;;;9.90;100.00
51849;BME280;38952;51.090;-1.832;2022-10-24T06:21:27;98896.00;;;9.83;100.00
51849;BME280;38952;51.090;-1.832;2022-10-24T06:23:53;98893.28;;;9.83;100.00
51849;BME280;38952;51.090;-1.832;2022-10-24T06:26:18;98908.63;;;9.79;100.00
51849;BME280;38952;51.090;-1.832;2022-10-24T06:28:44;98900.22;;;9.75;100.00
51849;BME280;38952;51.090;-1.832;2022-10-24T06:31:10;98913.66;;;9.72;100.00
51849;BME280;38952;51.090;-1.832;2022-10-24T06:33:37;98914.25;;;9.69;100.00
51849;BME280;38952;51.090;-1.832;2022-10-24T06:36:04;98927.88;;;9.69;100.00
51849;BME280;38952;51.090;-1.832;2022-10-24T06:38:32;98919.28;;;9.61;100.00
51849;BME280;38952;51.090;-1.832;2022-10-24T06:40:57;98931.22;;;9.66;100.00
51849;BME280;38952;51.090;-1.832;2022-10-24T06:43:23;98942.78;;;9.76;100.00
51849;BME280;38952;51.090;-1.832;2022-10-24T06:45:49;98938.16;;;9.77;100.00
51849;BME280;38952;51.090;-1.832;2022-10-24T06:48:17;98947.34;;;9.81;100.00
51849;BME280;38952;51.090;-1.832;2022-10-24T06:50:42;98941.97;;;9.76;100.00
51849;BME280;38952;51.090;-1.832;2022-10-24T06:53:08;98941.47;;;9.74;100.00
51849;BME280;38952;51.090;-1.832;2022-10-24T06:55:34;98948.47;;;9.80;100.00
51849;BME280;38952;51.090;-1.832;2022-10-24T06:58:01;98954.53;;;9.77;100.00
51849;BME280;38952;51.090;-1.832;2022-10-24T07:00:27;98958.34;;;9.76;100.00
51849;BME280;38952;51.090;-1.832;2022-10-24T07:02:52;98966.53;;;9.76;100.00
51849;BME280;38952;51.090;-1.832;2022-10-24T07:05:18;98964.63;;;9.76;100.00
51849;BME280;38952;51.090;-1.832;2022-10-24T07:07:44;98955.13;;;9.74;100.00
51849;BME280;38952;51.090;-1.832;2022-10-24T07:10:13;98968.69;;;9.79;100.00
51849;BME280;38952;51.090;-1.832;2022-10-24T07:12:41;98975.69;;;9.85;100.00
51849;BME280;38952;51.090;-1.832;2022-10-24T07:15:10;98981.28;;;9.94;100.00
51849;BME280;38952;51.090;-1.832;2022-10-24T07:17:40;98981.19;;;10.18;100.00
51849;BME280;38952;51.090;-1.832;2022-10-24T07:20:07;98982.72;;;10.71;100.00
51849;BME280;38952;51.090;-1.832;2022-10-24T07:22:32;98999.97;;;11.27;100.00
51849;BME280;38952;51.090;-1.832;2022-10-24T07:24:58;98988.22;;;11.77;100.00
51849;BME280;38952;51.090;-1.832;2022-10-24T07:27:24;98994.63;;;11.73;100.00
51849;BME280;38952;51.090;-1.832;2022-10-24T07:29:49;99000.34;;;11.34;100.00
51849;BME280;38952;51.090;-1.832;2022-10-24T07:32:17;99017.69;;;11.02;100.00
51849;BME280;38952;51.090;-1.832;2022-10-24T07:34:43;99017.28;;;10.81;100.00
51849;BME280;38952;51.090;-1.832;2022-10-24T07:37:09;99016.75;;;10.65;100.00
51849;BME280;38952;51.090;-1.832;2022-10-24T07:39:34;99025.88;;;10.60;100.00
51849;BME280;38952;51.090;-1.832;2022-10-24T07:42:00;99020.28;;;10.52;100.00
51849;BME280;38952;51.090;-1.832;2022-10-24T07:44:25;99025.13;;;10.55;100.00
51849;BME280;38952;51.090;-1.832;2022-10-24T07:46:50;99033.53;;;10.58;100.00
51849;BME280;38952;51.090;-1.832;2022-10-24T07:49:18;99035.09;;;10.64;100.00
51849;BME280;38952;51.090;-1.832;2022-10-24T07:51:46;99041.66;;;10.63;100.00
51849;BME280;38952;51.090;-1.832;2022-10-24T07:54:24;99034.97;;;10.70;100.00
51849;BME280;38952;51.090;-1.832;2022-10-24T07:57:01;99053.25;;;10.88;100.00
51849;BME280;38952;51.090;-1.832;2022-10-24T07:59:31;99048.69;;;10.97;100.00
51849;BME280;38952;51.090;-1.832;2022-10-24T08:01:57;99044.56;;;11.14;100.00
51849;BME280;38952;51.090;-1.832;2022-10-24T08:04:22;99054.13;;;12.31;100.00
51849;BME280;38952;51.090;-1.832;2022-10-24T08:06:56;99065.84;;;14.15;100.00
51849;BME280;38952;51.090;-1.832;2022-10-24T08:09:25;99066.81;;;15.49;100.00
51849;BME280;38952;51.090;-1.832;2022-10-24T08:11:50;99073.41;;;16.71;96.27
51849;BME280;38952;51.090;-1.832;2022-10-24T08:14:16;99091.44;;;17.60;90.86
51849;BME280;38952;51.090;-1.832;2022-10-24T08:16:41;99088.03;;;18.28;86.26
51849;BME280;38952;51.090;-1.832;2022-10-24T08:19:07;99100.59;;;18.82;82.25
51849;BME280;38952;51.090;-1.832;2022-10-24T08:21:32;99099.34;;;19.56;82.83
51849;BME280;38952;51.090;-1.832;2022-10-24T08:23:59;99113.97;;;20.40;78.87
51849;BME280;38952;51.090;-1.832;2022-10-24T08:26:25;99104.75;;;20.95;78.36
51849;BME280;38952;51.090;-1.832;2022-10-24T08:28:51;99122.53;;;21.56;75.83
51849;BME280;38952;51.090;-1.832;2022-10-24T08:31:19;99121.09;;;22.19;74.07
51849;BME280;38952;51.090;-1.832;2022-10-24T08:33:45;99115.50;;;22.76;73.44
51849;BME280;38952;51.090;-1.832;2022-10-24T08:36:23;99120.81;;;23.23;73.17
51849;BME280;38952;51.090;-1.832;2022-10-24T08:38:52;99118.31;;;24.07;70.15
51849;BME280;38952;51.090;-1.832;2022-10-24T08:41:24;99125.59;;;24.26;65.31
51849;BME280;38952;51.090;-1.832;2022-10-24T08:43:52;99132.63;;;24.72;64.34
51849;BME280;38952;51.090;-1.832;2022-10-24T08:49:15;99129.38;;;23.44;68.50
51849;BME280;38952;51.090;-1.832;2022-10-24T08:51:52;99141.41;;;22.46;68.12
51849;BME280;38952;51.090;-1.832;2022-10-24T08:54:26;99138.88;;;21.84;71.66
51849;BME280;38952;51.090;-1.832;2022-10-24T08:56:55;99142.47;;;22.11;68.52
51849;BME280;38952;51.090;-1.832;2022-10-24T08:59:26;99135.91;;;21.50;70.13
51849;BME280;38952;51.090;-1.832;2022-10-24T09:04:40;99143.91;;;19.95;70.75
51849;BME280;38952;51.090;-1.832;2022-10-24T09:07:17;99151.16;;;19.08;77.04
51849;BME280;38952;51.090;-1.832;2022-10-24T09:09:51;99155.72;;;19.00;74.84
51849;BME280;38952;51.090;-1.832;2022-10-24T09:12:34;99154.06;;;19.27;75.12
51849;BME280;38952;51.090;-1.832;2022-10-24T09:15:16;99155.16;;;19.70;76.27
51849;BME280;38952;51.090;-1.832;2022-10-24T09:17:47;99159.44;;;20.90;72.69
51849;BME280;38952;51.090;-1.832;2022-10-24T09:20:29;99172.84;;;22.20;72.46
51849;BME280;38952;51.090;-1.832;2022-10-24T09:23:00;99179.13;;;23.05;62.91
51849;BME280;38952;51.090;-1.832;2022-10-24T09:25:47;99168.34;;;23.37;65.18
51849;BME280;38952;51.090;-1.832;2022-10-24T09:28:20;99160.59;;;24.09;64.07
51849;BME280;38952;51.090;-1.832;2022-10-24T09:30:57;99178.78;;;25.32;60.25
51849;BME280;38952;51.090;-1.832;2022-10-24T09:33:34;99178.03;;;25.82;64.81
51849;BME280;38952;51.090;-1.832;2022-10-24T09:36:03;99172.44;;;26.22;56.98
51849;BME280;38952;51.090;-1.832;2022-10-24T09:38:34;99185.88;;;26.85;58.71
51849;BME280;38952;51.090;-1.832;2022-10-24T09:44:24;99166.72;;;25.17;70.52
51849;BME280;38952;51.090;-1.832;2022-10-24T09:46:52;99171.72;;;24.02;61.85
51849;BME280;38952;51.090;-1.832;2022-10-24T09:49:22;99176.50;;;23.15;65.61
51849;BME280;38952;51.090;-1.832;2022-10-24T09:51:59;99178.97;;;22.06;63.54
51849;BME280;38952;51.090;-1.832;2022-10-24T09:54:29;99177.66;;;20.88;64.73
51849;BME280;38952;51.090;-1.832;2022-10-24T09:59:43;99182.28;;;20.45;69.29
51849;BME280;38952;51.090;-1.832;2022-10-24T10:04:39;99185.66;;;20.54;67.80
51849;BME280;38952;51.090;-1.832;2022-10-24T10:07:10;99188.25;;;20.47;67.88
51849;BME280;38952;51.090;-1.832;2022-10-24T10:09:52;99176.16;;;20.55;69.59
51849;BME280;38952;51.090;-1.832;2022-10-24T10:12:31;99186.88;;;20.72;67.14
51849;BME280;38952;51.090;-1.832;2022-10-24T10:15:00;99194.56;;;21.41;67.43
51849;BME280;38952;51.090;-1.832;2022-10-24T10:17:29;99199.44;;;21.68;62.83
51849;BME280;38952;51.090;-1.832;2022-10-24T10:19:57;99200.47;;;21.17;63.38
51849;BME280;38952;51.090;-1.832;2022-10-24T10:22:26;99218.09;;;21.67;62.27
51849;BME280;38952;51.090;-1.832;2022-10-24T10:24:52;99208.84;;;22.90;68.26
51849;BME280;38952;51.090;-1.832;2022-10-24T10:27:33;99206.25;;;24.31;63.40
51849;BME280;38952;51.090;-1.832;2022-10-24T10:33:03;99226.41;;;28.59;53.91
51849;BME280;38952;51.090;-1.832;2022-10-24T10:38:39;99228.25;;;31.64;45.75
51849;BME280;38952;51.090;-1.832;2022-10-24T10:44:15;99228.97;;;33.22;53.49
51849;BME280;38952;51.090;-1.832;2022-10-24T10:46:57;99229.69;;;32.51;40.39
51849;BME280;38952;51.090;-1.832;2022-10-24T10:49:29;99234.81;;;31.01;47.44
51849;BME280;38952;51.090;-1.832;2022-10-24T10:52:05;99233.84;;;30.88;41.58
51849;BME280;38952;51.090;-1.832;2022-10-24T10:57:44;99229.91;;;31.05;47.25
51849;BME280;38952;51.090;-1.832;2022-10-24T11:00:22;99225.13;;;29.91;46.51
51849;BME280;38952;51.090;-1.832;2022-10-24T11:03:08;99222.50;;;28.00;55.45
51849;BME280;38952;51.090;-1.832;2022-10-24T11:06:01;99230.06;;;26.37;61.68
51849;BME280;38952;51.090;-1.832;2022-10-24T11:11:29;99242.09;;;31.75;57.21
51849;BME280;38952;51.090;-1.832;2022-10-24T11:13:56;99239.03;;;32.65;43.16
51849;BME280;38952;51.090;-1.832;2022-10-24T11:16:26;99238.13;;;34.30;43.30
51849;BME280;38952;51.090;-1.832;2022-10-24T11:18:56;99236.78;;;31.77;40.54
51849;BME280;38952;51.090;-1.832;2022-10-24T11:21:24;99234.84;;;32.40;46.59
51849;BME280;38952;51.090;-1.832;2022-10-24T11:26:42;99247.56;;;36.41;40.81
51849;BME280;38952;51.090;-1.832;2022-10-24T11:29:30;99243.84;;;37.85;43.43
51849;BME280;38952;51.090;-1.832;2022-10-24T11:35:00;99235.34;;;37.76;39.87
51849;BME280;38952;51.090;-1.832;2022-10-24T11:37:39;99245.63;;;37.30;45.61
51849;BME280;38952;51.090;-1.832;2022-10-24T11:40:10;99248.03;;;36.85;37.57
51849;BME280;38952;51.090;-1.832;2022-10-24T11:45:16;99226.88;;;35.81;36.41
51849;BME280;38952;51.090;-1.832;2022-10-24T11:50:24;99238.22;;;30.49;37.06
51849;BME280;38952;51.090;-1.832;2022-10-24T11:52:55;99245.97;;;27.72;49.02
51849;BME280;38952;51.090;-1.832;2022-10-24T11:55:26;99250.19;;;30.56;48.82
51849;BME280;38952;51.090;-1.832;2022-10-24T11:58:33;99252.53;;;32.44;51.86
51849;BME280;38952;51.090;-1.832;2022-10-24T12:01:30;99252.41;;;34.39;50.79
51849;BME280;38952;51.090;-1.832;2022-10-24T12:18:09;99244.81;;;24.11;61.48
51849;BME280;38952;51.090;-1.832;2022-10-24T12:20:36;99239.88;;;22.88;60.80
51849;BME280;38952;51.090;-1.832;2022-10-24T12:23:04;99245.72;;;20.78;64.98
51849;BME280;38952;51.090;-1.832;2022-10-24T12:25:35;99237.59;;;19.42;68.78
51849;BME280;38952;51.090;-1.832;2022-10-24T12:28:06;99233.13;;;21.63;75.17
51849;BME280;38952;51.090;-1.832;2022-10-24T12:30:41;99225.50;;;22.06;67.05
51849;BME280;38952;51.090;-1.832;2022-10-24T12:33:18;99236.88;;;21.51;70.16
51849;BME280;38952;51.090;-1.832;2022-10-24T12:35:50;99245.78;;;23.88;66.58
51849;BME280;38952;51.090;-1.832;2022-10-24T12:41:05;99248.84;;;29.35;46.51
51849;BME280;38952;51.090;-1.832;2022-10-24T12:43:46;99234.13;;;30.06;46.29
51849;BME280;38952;51.090;-1.832;2022-10-24T12:51:33;99248.50;;;28.95;42.04
51849;BME280;38952;51.090;-1.832;2022-10-24T12:59:54;99249.66;;;26.34;53.48
51849;BME280;38952;51.090;-1.832;2022-10-24T13:05:13;99243.94;;;25.33;53.21
51849;BME280;38952;51.090;-1.832;2022-10-24T13:21:31;99226.47;;;26.19;48.44
51849;BME280;38952;51.090;-1.832;2022-10-24T13:24:22;99228.34;;;23.99;54.05
51849;BME280;38952;51.090;-1.832;2022-10-24T13:32:20;99219.13;;;20.26;60.68
51849;BME280;38952;51.090;-1.832;2022-10-24T13:39:37;99224.75;;;21.86;65.34
51849;BME280;38952;51.090;-1.832;2022-10-24T13:42:07;99233.53;;;22.61;68.04
51849;BME280;38952;51.090;-1.832;2022-10-24T13:44:46;99227.59;;;25.56;62.58
51849;BME280;38952;51.090;-1.832;2022-10-24T13:47:23;99231.19;;;25.64;62.75
51849;BME280;38952;51.090;-1.832;2022-10-24T13:55:02;99225.94;;;21.19;68.32
51849;BME280;38952;51.090;-1.832;2022-10-24T13:57:46;99226.34;;;22.90;58.08
51849;BME280;38952;51.090;-1.832;2022-10-24T14:00:20;99228.66;;;22.04;60.48
51849;BME280;38952;51.090;-1.832;2022-10-24T14:02:46;99219.91;;;21.36;61.33
51849;BME280;38952;51.090;-1.832;2022-10-24T14:05:33;99218.25;;;21.12;63.97
51849;BME280;38952;51.090;-1.832;2022-10-24T14:08:06;99219.63;;;20.83;64.99
51849;BME280;38952;51.090;-1.832;2022-10-24T14:10:37;99221.41;;;19.88;69.50
51849;BME280;38952;51.090;-1.832;2022-10-24T14:13:04;99224.00;;;18.55;72.22
51849;BME280;38952;51.090;-1.832;2022-10-24T14:15:32;99230.19;;;17.53;76.08
51849;BME280;38952;51.090;-1.832;2022-10-24T14:18:18;99238.56;;;17.44;81.62
51849;BME280;38952;51.090;-1.832;2022-10-24T14:20:57;99235.19;;;17.39;82.91
51849;BME280;38952;51.090;-1.832;2022-10-24T14:24:13;99227.06;;;17.09;84.12
51849;BME280;38952;51.090;-1.832;2022-10-24T14:26:18;99241.41;;;16.51;85.08
51849;BME280;38952;51.090;-1.832;2022-10-24T14:28:49;99234.09;;;15.96;85.85
51849;BME280;38952;51.090;-1.832;2022-10-24T14:31:27;99235.03;;;15.52;88.16
51849;BME280;38952;51.090;-1.832;2022-10-24T14:33:56;99250.19;;;15.11;91.99
51849;BME280;38952;51.090;-1.832;2022-10-24T14:36:33;99243.13;;;14.44;97.69
51849;BME280;38952;51.090;-1.832;2022-10-24T14:39:05;99245.97;;;14.12;100.00
51849;BME280;38952;51.090;-1.832;2022-10-24T14:41:33;99242.38;;;13.94;100.00
51849;BME280;38952;51.090;-1.832;2022-10-24T14:44:11;99257.34;;;13.88;100.00
51849;BME280;38952;51.090;-1.832;2022-10-24T14:46:41;99247.63;;;13.82;100.00
51849;BME280;38952;51.090;-1.832;2022-10-24T14:51:54;99257.19;;;14.34;100.00
51849;BME280;38952;51.090;-1.832;2022-10-24T14:54:23;99261.31;;;15.41;100.00
51849;BME280;38952;51.090;-1.832;2022-10-24T14:56:50;99263.56;;;18.56;100.00
51849;BME280;38952;51.090;-1.832;2022-10-24T14:59:37;99268.59;;;20.55;98.88
51849;BME280;38952;51.090;-1.832;2022-10-24T15:07:58;99273.97;;;19.40;94.74